This is the latest recevied weather packets stored in our database for station/object F5NTS. If no packets are shown the sender has not sent any weather packets the latest 10 day(s).
| Time | Temp. | Humidity | Pressure | Rain* | Wind** | Luminosity | Snow |
|---|---|---|---|---|---|---|---|
| 1777452904 | 15° C | 43% | 1017.9 hPa | 0 mm | - | - | - |
| 1777452304 | 15° C | 43% | 1017.9 hPa | 0 mm | - | - | - |
| 1777448704 | 13.33° C | 45% | 1017.7 hPa | 0 mm | - | - | - |
| 1777441804 | 8.89° C | 49% | 1017.4 hPa | 0 mm | - | - | - |
| 1777440604 | 8.89° C | 50% | 1017.3 hPa | 0 mm | - | - | - |
| 1777440004 | 8.89° C | 50% | 1017.2 hPa | 0 mm | - | - | - |
| 1777437305 | 8.33° C | 51% | 1016.9 hPa | 0 mm | - | - | - |
| 1777435504 | 8.89° C | 51% | 1016.6 hPa | 0 mm | - | - | - |
| 1777433404 | 9.44° C | 51% | 1016.7 hPa | 0 mm | - | - | - |
| 1777432804 | 9.44° C | 52% | 1016.5 hPa | 0 mm | - | - | - |
| 1777432504 | 9.44° C | 51% | 1016.5 hPa | 0 mm | - | - | - |
| 1777430704 | 9.44° C | 50% | 1016.3 hPa | 0 mm | - | - | - |
| 1777429804 | 10° C | 50% | 1016.3 hPa | 0 mm | - | - | - |
| 1777428304 | 10.56° C | 48% | 1016.3 hPa | 0 mm | - | - | - |
| 1777426205 | 11.11° C | 48% | 1016.3 hPa | 0 mm | - | - | - |
| 1777425604 | 11.11° C | 47% | 1015.9 hPa | 0 mm | - | - | - |
| 1777418704 | 12.22° C | 43% | 1016.2 hPa | 0 mm | - | - | - |
| 1777414204 | 13.33° C | 41% | 1015.6 hPa | 0 mm | - | - | - |
| 1777413604 | 13.33° C | 41% | 1015.6 hPa | 0 mm | - | - | - |
| 1777406104 | 15.56° C | 38% | 1014.8 hPa | 0 mm | - | - | - |
| 1777405804 | 15.56° C | 38% | 1014.8 hPa | 0 mm | - | - | - |
* Rain latest hour (hover to see other rain measurements)
** Current wind speed in m/s (hover to see current wind gust speed)